• Join FlightAware (Why Join?)
  • Login
  • US Flag 
10:40AM EST


 

Airport Tracker/Info


-or-


 

Live Flight TrackerFlight Track Log ✈ PDT4155 ✈ 26-Sep-2013 ✈ KBGM - KPHL

Flight Track Log - Related Links

Times and Time Zones

All times are in EDT time to prevent confusion due to time zone crossing. See the PDT4155 flight status page for this flight to view local times or setup timezone preferences in your user account.

Time Position Orientation Groundspeed Altitude Reporting Facility
EDT Latitude Longitude Course Direction KTS MPH feet Rate Location/Type
07:09AM 42.0464 -75.9266 180° South  Level Estimated
07:10AM 41.9924 -75.9090 180° South  Level Estimated
07:11AM 41.9370 -75.9146 184° South  Level FlightAware Approximate
07:12AM 41.8815 -75.9201 184° South  Level FlightAware Approximate
07:13AM 41.8261 -75.9257 184° South  Level FlightAware Approximate
07:14AM 41.7724 -75.9063 154° Southeast  Level Estimated
07:15AM 41.7188 -75.8870 160° South  Level Estimated
07:16AM 41.6651 -75.8677 159° South  Level Estimated
07:17AM 41.6119 -75.8458 163° South  Level FlightAware Approximate
07:18AM 41.5588 -75.8241 163° South  Level FlightAware Approximate
07:19AM 41.5051 -75.8050 153° Southeast  Level Estimated
07:20AM 41.4514 -75.7860 161° South  Level Estimated
07:21AM 41.4001 -75.7574 157° South  Level FlightAware Approximate
07:22AM 41.3488 -75.7289 157° South  Level FlightAware Approximate
07:23AM 41.2949 -75.7107 162° South  Level Estimated
07:24AM 41.2427 -75.6851 160° South  Level FlightAware Approximate
07:25AM 41.1906 -75.6596 160° South  Level FlightAware Approximate
07:26AM 41.1384 -75.6341 160° South  Level FlightAware Approximate
07:27AM 41.0863 -75.6087 160° South  Level FlightAware Approximate
07:28AM 41.0321 -75.5919 159° South  Level Estimated
07:29AM 40.9780 -75.5753 163° South  Level Estimated
07:30AM 40.9257 -75.5501 160° South  Level FlightAware Approximate
07:31AM 40.8735 -75.5251 160° South  Level FlightAware Approximate
07:32AM 40.8212 -75.5000 160° South  Level FlightAware Approximate
07:32AM 40.6167 -75.4833 187° South 270 311 5,600  Level Philadelphia TRACON
07:33AM 40.7690 -75.4750 160° South  Level FlightAware Approximate
07:34AM 40.7145 -75.4606 190° South  Level Estimated
07:34AM 40.5596 -75.4915 186° South  Level FlightAware Approximate
07:34AM 40.5167 -75.5000 186° South 244 281 5,000  Level Philadelphia TRACON
07:35AM 40.6594 -75.4707 188° South  Level FlightAware Approximate
07:35AM 40.4667 -75.5000 180° South 233 268 5,100  Level Philadelphia TRACON
07:36AM 40.6044 -75.4809 188° South  Level FlightAware Approximate
07:36AM 40.4000 -75.4667 159° South 234 269 4,700  Level Philadelphia TRACON
07:37AM 40.5493 -75.4910 188° South  Level FlightAware Approximate
07:37AM 40.3333 -75.4333 159° South 242 278 4,000  Level Philadelphia TRACON
07:38AM 40.4959 -75.4710 187° South  Level Estimated
07:38AM 40.2667 -75.4000 159° South 228 262 4,000  Level Philadelphia TRACON
07:39AM 40.2167 -75.3833 166° South 227 261 4,000  Level Philadelphia TRACON
07:40AM 40.1500 -75.3500 159° South 228 262 4,000  Level Philadelphia TRACON
07:41AM 40.1000 -75.3167 153° Southeast 228 262 4,000  Level Philadelphia TRACON
07:42AM 40.0500 -75.2667 143° Southeast 226 260 4,000  Level Philadelphia TRACON
07:43AM 40.0000 -75.2167 143° Southeast 230 265 4,000  Level Philadelphia TRACON
07:44AM 39.9500 -75.1833 153° Southeast 228 262 4,000 -100 Level Philadelphia TRACON
07:45AM 39.8833 -75.1500 159° South 202 232 3,800 -526 Descending Philadelphia TRACON
07:46AM 39.8500 -75.1167 142° Southeast 204 235 3,000 -1,000 Descending Philadelphia TRACON
07:47AM 39.8000 -75.1667 218° Southwest 202 232 1,700 -857 Descending Philadelphia TRACON
07:48AM 39.8167 -75.2000 303° West 151 174 1,200 -722 Descending Philadelphia TRACON
07:49AM 39.8500 -75.2167 339° North 130 150 400 -800 Descending Philadelphia TRACON